createdAt,value
2018-07-05T00:00:49.813Z,7.07
2018-07-05T00:03:04.468Z,6.90
2018-07-05T00:05:19.258Z,6.93
2018-07-05T00:07:34.087Z,8.37
2018-07-05T00:09:48.826Z,7.90
2018-07-05T00:12:03.583Z,7.93
2018-07-05T00:14:18.343Z,7.63
2018-07-05T00:16:33.114Z,14.20
2018-07-05T00:18:48.963Z,7.97
2018-07-05T00:21:03.715Z,7.30
2018-07-05T00:23:18.527Z,7.53
2018-07-05T00:25:33.207Z,7.13
2018-07-05T00:27:47.929Z,7.10
2018-07-05T00:30:02.655Z,7.70
2018-07-05T00:32:17.516Z,6.87
2018-07-05T00:34:32.199Z,8.70
2018-07-05T00:36:46.960Z,8.23
2018-07-05T00:39:01.659Z,11.50
2018-07-05T00:41:16.463Z,10.87
2018-07-05T00:43:31.273Z,9.20
2018-07-05T00:45:45.943Z,8.37
2018-07-05T00:48:00.658Z,9.20
2018-07-05T00:50:15.402Z,9.50
2018-07-05T00:52:30.275Z,8.00
2018-07-05T00:54:44.983Z,9.77
2018-07-05T00:56:59.743Z,8.07
2018-07-05T00:59:14.563Z,8.30
2018-07-05T01:01:29.226Z,7.33
2018-07-05T01:03:44.088Z,7.63
2018-07-05T01:05:59.081Z,7.47
2018-07-05T01:08:13.761Z,7.90
2018-07-05T01:10:28.328Z,10.33
2018-07-05T01:12:43.124Z,7.30
2018-07-05T01:14:58.073Z,7.77
2018-07-05T01:17:12.851Z,7.57
2018-07-05T01:19:27.576Z,10.63
2018-07-05T01:21:42.364Z,7.50
2018-07-05T01:23:57.269Z,8.43
2018-07-05T01:26:11.976Z,8.63
2018-07-05T01:28:26.793Z,8.17
2018-07-05T01:30:41.639Z,7.60
2018-07-05T01:32:56.440Z,8.77
2018-07-05T01:35:11.104Z,7.17
2018-07-05T01:37:25.823Z,6.70
2018-07-05T01:39:40.571Z,6.77
2018-07-05T01:41:55.317Z,6.97
2018-07-05T01:44:10.149Z,6.90
2018-07-05T01:46:25.002Z,8.00
2018-07-05T01:48:39.677Z,6.97
2018-07-05T01:50:54.422Z,6.27
2018-07-05T01:53:09.214Z,6.30
2018-07-05T01:55:23.861Z,6.17
2018-07-05T01:57:38.548Z,7.10
2018-07-05T01:59:53.369Z,7.27
2018-07-05T02:02:08.193Z,6.93
2018-07-05T02:04:22.822Z,7.20
2018-07-05T02:06:37.656Z,7.17
2018-07-05T02:08:52.524Z,7.87
2018-07-05T02:11:07.161Z,11.07
2018-07-05T02:13:22.009Z,7.37
2018-07-05T02:15:36.800Z,8.00
2018-07-05T02:17:51.338Z,9.37
2018-07-05T02:20:06.155Z,7.10
2018-07-05T02:22:20.987Z,8.97
2018-07-05T02:24:35.623Z,7.87
2018-07-05T02:26:50.379Z,8.13
2018-07-05T02:29:05.113Z,9.23
2018-07-05T02:31:19.798Z,8.63
2018-07-05T02:33:34.502Z,7.63
2018-07-05T02:35:49.291Z,7.50
2018-07-05T02:38:09.441Z,8.50
2018-07-05T02:40:24.115Z,8.30
2018-07-05T02:42:38.935Z,9.47
2018-07-05T02:44:54.342Z,8.93
2018-07-05T02:47:08.841Z,8.60
2018-07-05T02:49:23.526Z,9.90
2018-07-05T02:51:38.691Z,9.37
2018-07-05T02:53:53.576Z,9.40
2018-07-05T02:56:08.408Z,10.07
2018-07-05T02:58:23.223Z,9.97
2018-07-05T03:00:37.954Z,11.37
2018-07-05T03:02:52.840Z,10.00
2018-07-05T03:05:07.603Z,9.07
2018-07-05T03:07:22.327Z,8.77
2018-07-05T03:09:37.179Z,9.13
2018-07-05T03:11:52.117Z,8.57
2018-07-05T03:14:06.755Z,7.80
2018-07-05T03:16:21.594Z,9.07
2018-07-05T03:18:36.416Z,7.63
2018-07-05T03:20:51.106Z,7.70
2018-07-05T03:23:05.588Z,7.83
2018-07-05T03:25:20.511Z,8.33
2018-07-05T03:27:35.253Z,7.93
2018-07-05T03:29:50.041Z,8.27
2018-07-05T03:32:04.888Z,8.53
2018-07-05T03:34:19.663Z,7.10
2018-07-05T03:36:34.580Z,9.13
2018-07-05T03:38:49.537Z,7.00
2018-07-05T03:41:04.377Z,7.27
2018-07-05T03:43:19.041Z,6.40
2018-07-05T03:45:33.954Z,5.57
2018-07-05T03:47:48.760Z,7.43
2018-07-05T03:50:03.561Z,5.40
2018-07-05T03:52:18.404Z,5.47
2018-07-05T03:54:33.063Z,5.40
2018-07-05T03:56:47.739Z,5.87
2018-07-05T03:59:02.830Z,6.13
2018-07-05T04:01:17.478Z,5.83
2018-07-05T04:03:32.350Z,6.63
2018-07-05T04:05:47.061Z,8.03
2018-07-05T04:08:01.963Z,8.47
2018-07-05T04:10:16.836Z,7.23
2018-07-05T04:12:31.647Z,7.50
2018-07-05T04:14:46.380Z,7.53
2018-07-05T04:17:01.135Z,5.87
2018-07-05T04:19:15.879Z,8.47
2018-07-05T04:21:30.528Z,6.00
2018-07-05T04:23:45.448Z,6.70
2018-07-05T04:26:00.117Z,8.23
2018-07-05T04:28:15.049Z,6.87
2018-07-05T04:30:29.766Z,6.73
2018-07-05T04:32:44.573Z,6.70
2018-07-05T04:34:59.415Z,6.60
2018-07-05T04:37:14.079Z,8.60
2018-07-05T04:39:28.863Z,6.33
2018-07-05T04:41:45.511Z,5.23
2018-07-05T04:44:00.308Z,7.10
2018-07-05T04:46:15.174Z,6.23
2018-07-05T04:48:29.956Z,9.80
2018-07-05T04:50:44.726Z,7.00
2018-07-05T04:52:59.440Z,8.60
2018-07-05T04:55:14.071Z,5.20
2018-07-05T04:57:28.729Z,5.90
2018-07-05T04:59:43.633Z,6.43
2018-07-05T05:01:58.301Z,6.20
2018-07-05T05:04:13.216Z,6.03
2018-07-05T05:06:27.875Z,6.20
2018-07-05T05:08:42.636Z,5.60
2018-07-05T05:10:57.587Z,5.07
2018-07-05T05:13:12.454Z,5.37
2018-07-05T05:15:27.229Z,5.30
2018-07-05T05:17:42.011Z,6.50
2018-07-05T05:19:57.047Z,6.83
2018-07-05T05:22:11.854Z,6.40
2018-07-05T05:24:26.574Z,5.43
2018-07-05T05:26:41.411Z,5.37
2018-07-05T05:28:56.205Z,6.00
2018-07-05T05:31:11.029Z,4.93
2018-07-05T05:33:25.815Z,5.23
2018-07-05T05:35:40.639Z,5.43
2018-07-05T05:37:55.459Z,7.77
2018-07-05T05:40:10.311Z,6.23
2018-07-05T05:42:24.931Z,5.83
2018-07-05T05:44:39.785Z,9.40
2018-07-05T05:46:54.859Z,4.83
2018-07-05T05:49:09.645Z,4.57
2018-07-05T05:51:24.375Z,4.77
2018-07-05T05:53:39.207Z,5.13
2018-07-05T05:55:54.059Z,6.70
2018-07-05T05:58:15.287Z,7.03
2018-07-05T06:00:30.078Z,6.20
2018-07-05T06:02:44.784Z,5.80
2018-07-05T06:04:59.503Z,7.13
2018-07-05T06:07:14.320Z,6.90
2018-07-05T06:09:28.971Z,6.33
2018-07-05T06:11:43.686Z,6.80
2018-07-05T06:13:58.447Z,5.10
2018-07-05T06:16:13.244Z,8.23
2018-07-05T06:18:27.843Z,5.93
2018-07-05T06:20:42.757Z,6.07
2018-07-05T06:22:57.477Z,5.73
2018-07-05T06:25:12.262Z,7.07
2018-07-05T06:27:26.871Z,6.57
2018-07-05T06:29:41.770Z,6.53
2018-07-05T06:31:56.465Z,6.70
2018-07-05T06:34:11.120Z,13.37
2018-07-05T06:36:26.093Z,6.53
2018-07-05T06:38:40.880Z,12.07
2018-07-05T06:40:55.639Z,12.47
2018-07-05T06:45:31.119Z,10.80
2018-07-05T06:47:52.508Z,12.00
2018-07-05T06:50:07.256Z,12.43
2018-07-05T06:52:21.963Z,9.97
2018-07-05T06:54:36.895Z,10.33
2018-07-05T06:56:51.433Z,9.97
2018-07-05T06:59:06.167Z,9.83
2018-07-05T07:01:21.088Z,10.70
2018-07-05T07:03:35.860Z,9.23
2018-07-05T07:05:50.655Z,8.63
2018-07-05T07:08:05.442Z,11.27
2018-07-05T07:10:20.475Z,10.73
2018-07-05T07:12:35.342Z,10.20
2018-07-05T07:14:49.972Z,12.47
2018-07-05T07:17:04.739Z,9.40
2018-07-05T07:19:19.550Z,11.83
2018-07-05T07:21:34.383Z,12.47
2018-07-05T07:23:49.195Z,11.57
2018-07-05T07:26:04.003Z,11.53
2018-07-05T07:28:18.644Z,11.53
2018-07-05T07:30:33.266Z,11.60
2018-07-05T07:32:48.033Z,11.80
2018-07-05T07:35:02.905Z,13.87
2018-07-05T07:37:17.614Z,14.30
2018-07-05T07:39:32.328Z,12.70
2018-07-05T07:41:46.668Z,13.00
2018-07-05T07:43:48.999Z,12.43
2018-07-05T07:45:51.380Z,11.90
2018-07-05T07:47:53.708Z,11.30
2018-07-05T07:49:56.036Z,12.03
2018-07-05T07:51:58.413Z,11.00
2018-07-05T07:54:00.747Z,12.13
2018-07-05T07:56:03.116Z,10.67
2018-07-05T07:58:05.467Z,12.90
2018-07-05T08:00:07.811Z,10.07
2018-07-05T08:02:10.182Z,10.90
2018-07-05T08:04:12.551Z,10.80
2018-07-05T08:06:15.015Z,8.60
2018-07-05T08:08:17.567Z,12.50
2018-07-05T08:10:20.059Z,8.40
2018-07-05T08:12:22.525Z,9.17
2018-07-05T08:14:24.926Z,7.60
2018-07-05T08:16:27.468Z,7.60
2018-07-05T08:18:29.875Z,7.83
2018-07-05T08:20:32.266Z,8.77
2018-07-05T08:22:34.775Z,9.20
2018-07-05T08:24:37.118Z,7.53
2018-07-05T08:26:39.508Z,9.47
2018-07-05T08:28:41.852Z,7.87
2018-07-05T08:30:44.219Z,8.43
2018-07-05T08:32:46.621Z,6.70
2018-07-05T08:34:49.008Z,6.70
2018-07-05T08:36:51.384Z,6.63
2018-07-05T08:38:53.767Z,6.40
2018-07-05T08:40:56.091Z,5.93
2018-07-05T08:42:58.456Z,5.33
2018-07-05T08:45:00.834Z,4.93
2018-07-05T08:47:03.189Z,5.20
2018-07-05T08:49:05.628Z,5.20
2018-07-05T08:51:08.032Z,5.97
2018-07-05T08:53:10.648Z,5.33
2018-07-05T08:55:13.024Z,7.93
2018-07-05T08:57:15.387Z,7.53
2018-07-05T08:59:17.779Z,5.87
2018-07-05T09:01:20.162Z,4.63
2018-07-05T09:03:22.521Z,4.80
2018-07-05T09:05:24.853Z,5.80
2018-07-05T09:07:27.187Z,6.67
2018-07-05T09:09:29.577Z,5.73
2018-07-05T09:11:31.927Z,5.67
2018-07-05T09:13:34.295Z,5.30
2018-07-05T09:15:36.649Z,4.77
2018-07-05T09:17:39.074Z,5.33
2018-07-05T09:19:41.544Z,6.80
2018-07-05T09:21:43.892Z,4.23
2018-07-05T09:23:46.286Z,5.00
2018-07-05T09:25:48.772Z,5.93
2018-07-05T09:27:51.288Z,5.03
2018-07-05T09:29:54.226Z,5.27
2018-07-05T09:31:56.689Z,6.80
2018-07-05T09:33:59.106Z,4.70
2018-07-05T09:36:01.482Z,6.50
2018-07-05T09:38:03.877Z,5.17
2018-07-05T09:40:06.300Z,4.10
2018-07-05T09:42:08.684Z,5.60
2018-07-05T09:44:11.106Z,5.27
2018-07-05T09:46:13.571Z,5.93
2018-07-05T09:48:16.014Z,7.13
2018-07-05T09:50:18.461Z,6.17
2018-07-05T09:52:20.955Z,5.50
2018-07-05T09:54:23.356Z,6.53
2018-07-05T09:56:25.909Z,6.93
2018-07-05T09:58:28.267Z,5.73
2018-07-05T10:00:52.211Z,5.47
2018-07-05T10:02:54.712Z,6.13
2018-07-05T10:04:57.100Z,4.40
2018-07-05T10:06:59.487Z,4.87
2018-07-05T10:09:01.917Z,4.43
2018-07-05T10:11:04.325Z,6.37
2018-07-05T10:13:07.601Z,4.30
2018-07-05T10:15:10.150Z,6.50
2018-07-05T10:17:13.179Z,3.87
2018-07-05T10:19:15.495Z,4.40
2018-07-05T10:21:18.072Z,4.33
2018-07-05T10:23:20.483Z,4.00
2018-07-05T10:25:22.847Z,4.20
2018-07-05T10:27:25.199Z,4.63
2018-07-05T10:29:40.103Z,4.43
2018-07-05T10:31:54.928Z,5.67
2018-07-05T10:33:58.240Z,7.20
2018-07-05T10:36:00.608Z,4.20
2018-07-05T10:38:03.866Z,5.20
2018-07-05T10:40:18.340Z,5.43
2018-07-05T10:42:33.114Z,5.10
2018-07-05T10:44:47.866Z,4.50
2018-07-05T10:47:02.796Z,5.10
2018-07-05T10:49:17.829Z,6.27
2018-07-05T10:51:34.391Z,6.80
2018-07-05T10:53:49.285Z,9.27
2018-07-05T10:56:04.090Z,10.73
2018-07-05T10:58:20.252Z,5.60
2018-07-05T11:00:37.166Z,7.03
2018-07-05T11:02:52.360Z,6.23
2018-07-05T11:05:07.211Z,6.33
2018-07-05T11:07:23.857Z,7.00
2018-07-05T11:09:38.916Z,7.77
2018-07-05T11:11:53.659Z,6.77
2018-07-05T11:14:08.198Z,8.77
2018-07-05T11:16:23.075Z,5.70
2018-07-05T11:18:38.006Z,9.87
2018-07-05T11:20:53.750Z,7.67
2018-07-05T11:23:08.578Z,7.07
2018-07-05T11:25:23.889Z,10.03
2018-07-05T11:27:38.685Z,8.77
2018-07-05T11:29:53.544Z,8.47
2018-07-05T11:32:08.470Z,7.97
2018-07-05T11:34:23.243Z,8.17
2018-07-05T11:36:38.077Z,8.43
2018-07-05T11:38:53.327Z,11.47
2018-07-05T11:41:08.250Z,11.20
2018-07-05T11:43:23.432Z,9.53
2018-07-05T11:45:38.309Z,10.10
2018-07-05T11:47:53.410Z,9.10
2018-07-05T11:50:08.631Z,9.03
2018-07-05T11:52:23.436Z,9.10
2018-07-05T11:54:38.264Z,10.37
2018-07-05T11:56:52.804Z,10.10
2018-07-05T11:59:07.778Z,9.97
2018-07-05T12:01:22.721Z,10.53
2018-07-05T12:03:37.617Z,12.23
2018-07-05T12:05:52.564Z,10.93
2018-07-05T12:08:07.264Z,12.87
2018-07-05T12:10:22.126Z,12.47
2018-07-05T12:12:36.809Z,12.40
2018-07-05T12:14:51.576Z,12.70
2018-07-05T12:17:06.657Z,14.13
2018-07-05T12:19:21.561Z,13.50
2018-07-05T12:21:36.380Z,15.83
2018-07-05T12:23:52.383Z,15.53
2018-07-05T12:26:07.471Z,15.27
2018-07-05T12:28:22.231Z,15.40
2018-07-05T12:30:37.227Z,15.50
2018-07-05T12:32:52.081Z,15.00
2018-07-05T12:35:07.007Z,15.57
2018-07-05T12:37:21.742Z,15.80
2018-07-05T12:39:36.606Z,15.10
2018-07-05T12:41:51.382Z,13.90
2018-07-05T12:44:06.195Z,13.50
2018-07-05T12:46:20.855Z,13.43
2018-07-05T12:48:36.375Z,12.33
2018-07-05T12:50:51.012Z,13.60
2018-07-05T12:53:06.162Z,14.43
2018-07-05T12:55:21.008Z,14.70
2018-07-05T12:57:35.820Z,13.67
2018-07-05T12:59:50.723Z,13.47
2018-07-05T13:02:05.630Z,13.67
2018-07-05T13:04:20.408Z,12.70
2018-07-05T13:06:35.382Z,11.43
2018-07-05T13:08:50.186Z,11.47
2018-07-05T13:11:04.934Z,12.17
2018-07-05T13:13:19.935Z,10.60
2018-07-05T13:15:34.980Z,11.17
2018-07-05T13:17:50.769Z,11.17
2018-07-05T13:20:05.540Z,10.47
2018-07-05T13:22:21.300Z,10.40
2018-07-05T13:24:36.084Z,10.00
2018-07-05T13:26:50.978Z,10.80
2018-07-05T13:29:05.726Z,13.20
2018-07-05T13:31:20.523Z,12.03
2018-07-05T13:33:35.522Z,10.77
2018-07-05T13:35:50.504Z,10.93
2018-07-05T13:38:06.125Z,9.57
2018-07-05T13:40:21.272Z,9.27
2018-07-05T13:42:35.781Z,10.40
2018-07-05T13:44:50.673Z,9.77
2018-07-05T13:47:05.481Z,9.10
2018-07-05T13:49:20.661Z,7.80
2018-07-05T13:51:35.583Z,6.87
2018-07-05T13:53:50.170Z,8.83
2018-07-05T13:56:04.704Z,7.60
2018-07-05T13:58:19.570Z,7.13
2018-07-05T14:00:34.437Z,6.60
2018-07-05T14:02:49.049Z,7.23
2018-07-05T14:05:03.907Z,6.30
2018-07-05T14:07:18.608Z,5.87
2018-07-05T14:09:33.290Z,4.70
2018-07-05T14:11:48.037Z,6.23
2018-07-05T14:14:02.848Z,5.20
2018-07-05T14:16:17.679Z,6.17
2018-07-05T14:18:32.396Z,6.23
2018-07-05T14:20:47.114Z,6.67
2018-07-05T14:23:01.972Z,4.90
2018-07-05T14:25:16.846Z,6.00
2018-07-05T14:27:31.581Z,5.93
2018-07-05T14:29:46.455Z,4.40
2018-07-05T14:32:01.131Z,4.33
2018-07-05T14:34:16.053Z,4.77
2018-07-05T14:36:32.878Z,4.23
2018-07-05T14:38:47.788Z,6.73
2018-07-05T14:41:02.493Z,4.10
2018-07-05T14:43:17.311Z,4.53
2018-07-05T14:45:32.470Z,4.23
2018-07-05T14:47:47.180Z,3.70
2018-07-05T14:50:02.125Z,4.23
2018-07-05T14:52:17.570Z,7.13
2018-07-05T14:54:32.483Z,4.50
2018-07-05T14:56:47.580Z,6.70
2018-07-05T14:59:02.440Z,4.93
2018-07-05T15:01:17.315Z,8.00
2018-07-05T15:03:32.267Z,4.00
2018-07-05T15:05:47.005Z,3.93
2018-07-05T15:08:01.608Z,3.23
2018-07-05T15:10:16.353Z,4.77
2018-07-05T15:12:30.892Z,5.33
2018-07-05T15:14:46.220Z,4.00
2018-07-05T15:17:00.751Z,3.80
2018-07-05T15:19:15.435Z,3.40
2018-07-05T15:21:30.236Z,4.00
2018-07-05T15:23:45.056Z,4.33
2018-07-05T15:25:59.740Z,5.43
2018-07-05T15:28:14.614Z,4.37
2018-07-05T15:30:29.575Z,4.83
2018-07-05T15:32:44.545Z,6.03
2018-07-05T15:34:59.249Z,3.00
2018-07-05T15:37:14.033Z,3.50
2018-07-05T15:39:28.775Z,5.03
2018-07-05T15:41:44.240Z,3.30
2018-07-05T15:43:58.978Z,3.53
2018-07-05T15:46:14.273Z,7.90
2018-07-05T15:48:29.096Z,4.60
2018-07-05T15:50:43.783Z,4.63
2018-07-05T15:52:58.558Z,3.63
2018-07-05T15:55:13.474Z,3.80
2018-07-05T15:57:28.336Z,3.87
2018-07-05T15:59:43.036Z,3.57
2018-07-05T16:01:57.759Z,3.63
2018-07-05T16:04:12.639Z,4.67
2018-07-05T16:06:27.309Z,3.40
2018-07-05T16:08:42.077Z,3.47
2018-07-05T16:10:56.994Z,5.40
2018-07-05T16:13:11.664Z,3.10
2018-07-05T16:15:26.316Z,3.00
2018-07-05T16:17:41.212Z,3.77
2018-07-05T16:19:55.948Z,4.60
2018-07-05T16:22:10.760Z,3.47
2018-07-05T16:24:25.632Z,5.27
2018-07-05T16:26:40.455Z,3.33
2018-07-05T16:28:55.151Z,3.43
2018-07-05T16:31:10.369Z,3.47
2018-07-05T16:33:25.119Z,4.13
2018-07-05T16:35:39.889Z,3.60
2018-07-05T16:37:54.732Z,3.47
2018-07-05T16:40:09.496Z,3.23
2018-07-05T16:42:24.359Z,2.93
2018-07-05T16:44:39.227Z,3.30
2018-07-05T16:46:54.007Z,3.03
2018-07-05T16:49:08.721Z,3.57
2018-07-05T16:51:23.560Z,3.13
2018-07-05T16:53:38.367Z,3.63
2018-07-05T16:55:53.148Z,4.40
2018-07-05T16:58:08.034Z,3.67
2018-07-05T17:00:22.792Z,4.20
2018-07-05T17:02:37.554Z,3.00
2018-07-05T17:04:52.288Z,2.83
2018-07-05T17:07:07.158Z,2.77
2018-07-05T17:09:21.825Z,2.60
2018-07-05T17:11:36.732Z,2.70
2018-07-05T17:13:51.526Z,2.87
2018-07-05T17:16:06.693Z,2.60
2018-07-05T17:18:21.885Z,2.87
2018-07-05T17:20:36.652Z,2.70
2018-07-05T17:22:51.273Z,3.33
2018-07-05T17:25:05.947Z,2.60
2018-07-05T17:27:20.785Z,2.80
2018-07-05T17:29:35.533Z,2.73
2018-07-05T17:31:50.732Z,2.40
2018-07-05T17:34:05.529Z,3.60
2018-07-05T17:36:20.284Z,2.40
2018-07-05T17:38:35.146Z,2.73
2018-07-05T17:40:49.852Z,2.67
2018-07-05T17:43:04.647Z,2.90
2018-07-05T17:45:19.487Z,2.57
2018-07-05T17:47:34.392Z,4.07
2018-07-05T17:49:49.250Z,3.47
2018-07-05T17:52:04.002Z,3.13
2018-07-05T17:54:18.826Z,4.93
2018-07-05T17:56:33.605Z,2.67
2018-07-05T17:58:48.329Z,3.07
2018-07-05T18:01:03.169Z,2.90
2018-07-05T18:03:17.872Z,3.10
2018-07-05T18:05:32.646Z,3.10
2018-07-05T18:07:47.389Z,2.90
2018-07-05T18:10:02.249Z,4.50
2018-07-05T18:12:17.029Z,5.10
2018-07-05T18:14:31.772Z,3.33
2018-07-05T18:16:46.742Z,2.73
2018-07-05T18:19:01.650Z,3.77
2018-07-05T18:21:16.396Z,3.40
2018-07-05T18:23:31.199Z,4.60
2018-07-05T18:25:46.013Z,3.27
2018-07-05T18:28:00.918Z,4.03
2018-07-05T18:30:15.761Z,4.30
2018-07-05T18:32:30.445Z,3.27
2018-07-05T18:34:45.125Z,6.90
2018-07-05T18:37:00.062Z,4.07
2018-07-05T18:39:14.827Z,3.20
2018-07-05T18:41:29.631Z,3.43
2018-07-05T18:43:44.455Z,3.23
2018-07-05T18:45:59.250Z,3.60
2018-07-05T18:48:14.096Z,3.20
2018-07-05T18:50:28.815Z,3.63
2018-07-05T18:52:43.573Z,3.30
2018-07-05T18:54:58.261Z,6.23
2018-07-05T18:57:13.654Z,3.30
2018-07-05T18:59:28.267Z,4.33
2018-07-05T19:01:42.988Z,3.50
2018-07-05T19:03:57.819Z,4.70
2018-07-05T19:06:12.729Z,3.33
2018-07-05T19:08:27.898Z,3.70
2018-07-05T19:10:42.918Z,5.73
2018-07-05T19:12:57.730Z,5.77
2018-07-05T19:15:12.316Z,4.97
2018-07-05T19:17:26.912Z,4.87
2018-07-05T19:19:41.638Z,4.13
2018-07-05T19:21:56.432Z,4.80
2018-07-05T19:24:11.325Z,4.53
2018-07-05T19:26:26.322Z,4.90
2018-07-05T19:28:41.019Z,5.13
2018-07-05T19:30:55.772Z,6.33
2018-07-05T19:33:10.604Z,5.13
2018-07-05T19:35:25.529Z,6.00
2018-07-05T19:37:40.528Z,5.70
2018-07-05T19:39:55.313Z,4.47
2018-07-05T19:42:10.196Z,5.63
2018-07-05T19:44:25.227Z,5.43
2018-07-05T19:46:39.879Z,5.33
2018-07-05T19:48:54.718Z,5.50
2018-07-05T19:51:09.703Z,5.40
2018-07-05T19:53:24.691Z,4.80
2018-07-05T19:55:39.327Z,5.70
2018-07-05T19:57:54.117Z,6.63
2018-07-05T20:00:08.981Z,5.27
2018-07-05T20:02:23.836Z,4.90
2018-07-05T20:04:38.628Z,4.07
2018-07-05T20:06:53.345Z,4.30
2018-07-05T20:09:08.969Z,4.87
2018-07-05T20:11:24.053Z,4.33
2018-07-05T20:13:39.564Z,7.83
2018-07-05T20:15:54.176Z,4.83
2018-07-05T20:18:08.853Z,3.80
2018-07-05T20:20:23.608Z,4.07
2018-07-05T20:22:38.428Z,5.17
2018-07-05T20:24:53.415Z,4.27
2018-07-05T20:27:08.257Z,3.83
2018-07-05T20:29:22.861Z,3.90
2018-07-05T20:31:37.537Z,5.33
2018-07-05T20:33:52.272Z,3.63
2018-07-05T20:36:07.025Z,4.37
2018-07-05T20:38:21.834Z,5.83
2018-07-05T20:40:36.564Z,3.13
2018-07-05T20:42:51.128Z,3.77
2018-07-05T20:45:06.030Z,3.97
2018-07-05T20:47:20.889Z,5.60
2018-07-05T20:49:35.841Z,3.90
2018-07-05T20:51:50.688Z,6.13
2018-07-05T20:54:05.535Z,6.20
2018-07-05T20:56:20.206Z,4.30
2018-07-05T20:58:34.912Z,5.80
2018-07-05T21:00:49.789Z,4.37
2018-07-05T21:03:04.490Z,4.30
2018-07-05T21:05:19.261Z,4.57
2018-07-05T21:07:34.023Z,4.43
2018-07-05T21:09:48.875Z,4.47
2018-07-05T21:12:03.534Z,4.60
2018-07-05T21:14:18.189Z,6.63
2018-07-05T21:16:32.919Z,5.03
2018-07-05T21:18:47.602Z,7.20
2018-07-05T21:21:02.362Z,6.00
2018-07-05T21:23:18.494Z,5.47
2018-07-05T21:25:33.382Z,5.43
2018-07-05T21:27:48.062Z,5.50
2018-07-05T21:30:02.733Z,7.40
2018-07-05T21:32:17.666Z,5.70
2018-07-05T21:34:38.982Z,6.40
2018-07-05T21:36:53.767Z,5.63
2018-07-05T21:39:08.667Z,5.57
2018-07-05T21:41:23.774Z,5.70
2018-07-05T21:43:38.396Z,6.03
2018-07-05T21:45:53.052Z,5.77
2018-07-05T21:48:07.871Z,6.37
2018-07-05T21:50:22.550Z,5.57
2018-07-05T21:52:37.336Z,5.90
2018-07-05T21:54:52.091Z,6.53
2018-07-05T21:57:06.865Z,6.60
2018-07-05T21:59:21.702Z,6.83
2018-07-05T22:01:36.412Z,6.47
2018-07-05T22:03:51.275Z,5.93
2018-07-05T22:06:06.307Z,5.97
2018-07-05T22:08:21.186Z,5.47
2018-07-05T22:10:35.913Z,6.00
2018-07-05T22:12:50.795Z,6.30
2018-07-05T22:15:05.580Z,7.53
2018-07-05T22:17:25.792Z,8.97
2018-07-05T22:19:45.769Z,7.20
2018-07-05T22:22:05.795Z,6.83
2018-07-05T22:24:25.953Z,7.30
2018-07-05T22:26:42.812Z,7.37
2018-07-05T22:29:02.879Z,7.40
2018-07-05T22:31:23.150Z,7.53
2018-07-05T22:33:38.139Z,8.40
2018-07-05T22:35:52.861Z,7.97
2018-07-05T22:38:07.544Z,7.23
2018-07-05T22:40:22.309Z,8.40
2018-07-05T22:42:37.488Z,9.23
2018-07-05T22:44:52.232Z,9.17
2018-07-05T22:47:06.912Z,11.13
2018-07-05T22:49:21.994Z,8.50
2018-07-05T22:51:36.721Z,9.27
2018-07-05T22:53:51.529Z,10.03
2018-07-05T22:56:06.117Z,8.43
2018-07-05T22:58:20.931Z,10.37
2018-07-05T23:00:35.860Z,10.07
2018-07-05T23:02:50.717Z,10.43
2018-07-05T23:05:05.457Z,12.33
2018-07-05T23:07:20.128Z,10.80
2018-07-05T23:09:34.947Z,10.93
2018-07-05T23:11:49.554Z,11.90
2018-07-05T23:14:04.372Z,12.63
2018-07-05T23:16:19.243Z,12.70
2018-07-05T23:18:34.058Z,11.50
2018-07-05T23:20:48.825Z,13.20
2018-07-05T23:23:03.560Z,15.10
2018-07-05T23:25:18.284Z,13.80
2018-07-05T23:27:33.003Z,13.93
2018-07-05T23:29:47.845Z,13.43
2018-07-05T23:32:02.652Z,15.23
2018-07-05T23:34:17.437Z,13.67
2018-07-05T23:36:32.212Z,14.17
2018-07-05T23:38:46.981Z,15.37
2018-07-05T23:41:01.772Z,15.80
2018-07-05T23:43:16.492Z,15.47
2018-07-05T23:45:31.331Z,16.93
2018-07-05T23:47:46.147Z,16.60
2018-07-05T23:50:01.085Z,19.37
2018-07-05T23:52:15.732Z,18.10
2018-07-05T23:54:30.520Z,19.27
2018-07-05T23:56:45.471Z,17.90
2018-07-05T23:59:00.052Z,17.97
